createdAt,value
2018-03-25T00:01:43.118Z,14.17
2018-03-25T00:04:10.930Z,15.07
2018-03-25T00:06:38.983Z,13.87
2018-03-25T00:09:07.425Z,13.90
2018-03-25T00:11:35.579Z,13.30
2018-03-25T00:14:03.983Z,15.10
2018-03-25T00:16:32.715Z,14.27
2018-03-25T00:19:00.811Z,14.77
2018-03-25T00:21:28.559Z,14.40
2018-03-25T00:23:56.110Z,14.60
2018-03-25T00:26:24.253Z,13.43
2018-03-25T00:28:52.169Z,12.70
2018-03-25T00:31:19.863Z,13.60
2018-03-25T00:33:47.464Z,13.50
2018-03-25T00:36:15.295Z,14.27
2018-03-25T00:38:42.919Z,14.30
2018-03-25T00:41:10.658Z,13.95
2018-03-25T00:43:38.209Z,12.80
2018-03-25T00:46:06.124Z,12.70
2018-03-25T00:48:34.373Z,14.20
2018-03-25T00:51:01.955Z,15.98
2018-03-25T00:53:29.892Z,15.30
2018-03-25T00:55:57.609Z,13.90
2018-03-25T00:58:26.203Z,15.03
2018-03-25T01:00:54.181Z,14.90
2018-03-25T01:03:22.561Z,14.00
2018-03-25T01:05:50.847Z,13.20
2018-03-25T01:08:18.905Z,14.63
2018-03-25T01:10:47.174Z,14.87
2018-03-25T01:13:15.326Z,14.15
2018-03-25T01:15:55.294Z,15.17
2018-03-25T01:18:23.964Z,14.40
2018-03-25T01:20:52.842Z,16.90
2018-03-25T01:23:20.835Z,16.73
2018-03-25T01:25:48.864Z,15.67
2018-03-25T01:28:16.619Z,17.13
2018-03-25T01:30:44.470Z,14.93
2018-03-25T01:33:12.464Z,14.77
2018-03-25T01:35:40.225Z,16.10
2018-03-25T01:38:08.145Z,16.65
2018-03-25T01:40:36.126Z,16.80
2018-03-25T01:43:04.139Z,17.20
2018-03-25T01:45:32.005Z,17.10
2018-03-25T01:47:59.676Z,17.40
2018-03-25T01:50:27.779Z,15.50
2018-03-25T01:52:55.511Z,16.00
2018-03-25T01:55:23.418Z,14.32
2018-03-25T01:57:51.617Z,14.13
2018-03-25T02:00:19.294Z,16.07
2018-03-25T02:02:47.480Z,16.33
2018-03-25T02:05:15.288Z,18.27
2018-03-25T02:07:43.581Z,16.90
2018-03-25T02:10:11.367Z,15.93
2018-03-25T02:12:39.424Z,16.10
2018-03-25T02:15:08.295Z,14.63
2018-03-25T02:17:36.164Z,14.97
2018-03-25T02:20:04.234Z,15.57
2018-03-25T02:22:32.389Z,15.70
2018-03-25T02:25:00.010Z,16.07
2018-03-25T02:27:27.695Z,17.33
2018-03-25T02:29:55.976Z,14.90
2018-03-25T02:32:24.502Z,15.20
2018-03-25T02:34:52.640Z,14.50
2018-03-25T02:37:20.744Z,15.63
2018-03-25T02:39:48.684Z,15.60
2018-03-25T02:42:16.418Z,19.20
2018-03-25T02:44:44.150Z,19.00
2018-03-25T02:47:12.329Z,17.03
2018-03-25T02:49:39.969Z,17.77
2018-03-25T02:52:08.738Z,21.00
2018-03-25T02:54:36.606Z,20.37
2018-03-25T02:57:04.581Z,17.23
2018-03-25T02:59:32.240Z,16.52
2018-03-25T03:02:00.408Z,16.90
2018-03-25T03:04:28.544Z,15.80
2018-03-25T03:06:57.012Z,15.03
2018-03-25T03:09:25.645Z,18.60
2018-03-25T03:11:53.886Z,15.20
2018-03-25T03:14:22.489Z,16.27
2018-03-25T03:16:50.606Z,17.03
2018-03-25T03:19:18.324Z,15.33
2018-03-25T03:21:46.501Z,17.53
2018-03-25T03:24:14.340Z,19.47
2018-03-25T03:26:42.203Z,17.40
2018-03-25T03:29:10.425Z,16.67
2018-03-25T03:31:38.398Z,17.80
2018-03-25T03:34:06.474Z,16.10
2018-03-25T03:36:34.099Z,16.83
2018-03-25T03:39:02.091Z,17.30
2018-03-25T03:41:29.848Z,18.30
2018-03-25T03:43:57.531Z,16.67
2018-03-25T03:46:25.216Z,15.60
2018-03-25T03:48:53.354Z,14.80
2018-03-25T03:51:21.664Z,16.73
2018-03-25T03:53:49.199Z,17.55
2018-03-25T03:56:17.016Z,15.83
2018-03-25T03:58:45.038Z,18.50
2018-03-25T04:01:13.215Z,15.73
2018-03-25T04:03:40.980Z,16.70
2018-03-25T04:06:08.655Z,15.63
2018-03-25T04:08:36.504Z,18.80
2018-03-25T04:11:04.633Z,17.30
2018-03-25T04:13:32.461Z,16.67
2018-03-25T04:16:01.123Z,17.20
2018-03-25T04:18:29.563Z,16.30
2018-03-25T04:20:57.539Z,16.33
2018-03-25T04:23:25.197Z,16.97
2018-03-25T04:25:52.974Z,18.57
2018-03-25T04:28:21.300Z,17.13
2018-03-25T04:30:49.477Z,19.70
2018-03-25T04:33:17.118Z,19.07
2018-03-25T04:35:44.665Z,17.57
2018-03-25T04:38:12.549Z,16.87
2018-03-25T04:40:40.665Z,18.23
2018-03-25T04:43:08.765Z,16.63
2018-03-25T04:45:36.500Z,20.27
2018-03-25T04:48:04.705Z,19.00
2018-03-25T04:50:32.864Z,18.90
2018-03-25T04:53:00.536Z,23.17
2018-03-25T04:55:28.381Z,22.43
2018-03-25T04:57:57.095Z,20.08
2018-03-25T05:00:24.965Z,23.03
2018-03-25T05:02:52.899Z,21.93
2018-03-25T05:05:21.134Z,22.23
2018-03-25T05:07:48.995Z,23.13
2018-03-25T05:10:17.077Z,21.90
2018-03-25T05:12:44.975Z,22.33
2018-03-25T05:15:14.165Z,23.33
2018-03-25T05:17:41.751Z,33.00
2018-03-25T05:20:09.874Z,33.03
2018-03-25T05:22:38.905Z,23.03
2018-03-25T05:25:06.868Z,33.25
2018-03-25T05:27:34.570Z,22.87
2018-03-25T05:30:02.274Z,20.83
2018-03-25T05:32:30.071Z,20.73
2018-03-25T05:34:57.792Z,22.63
2018-03-25T05:37:25.724Z,24.20
2018-03-25T05:39:53.330Z,24.47
2018-03-25T05:42:21.321Z,28.30
2018-03-25T05:44:49.246Z,24.73
2018-03-25T05:47:17.189Z,23.90
2018-03-25T05:49:45.295Z,21.70
2018-03-25T05:52:12.870Z,20.30
2018-03-25T05:54:40.994Z,18.67
2018-03-25T05:57:08.841Z,17.05
2018-03-25T05:59:36.520Z,20.23
2018-03-25T06:02:04.135Z,16.33
2018-03-25T06:04:32.134Z,17.85
2018-03-25T06:07:00.318Z,16.93
2018-03-25T06:09:29.478Z,14.40
2018-03-25T06:11:57.628Z,15.70
2018-03-25T06:14:25.781Z,16.20
2018-03-25T06:16:53.619Z,15.80
2018-03-25T06:19:21.726Z,14.70
2018-03-25T06:21:49.693Z,15.23
2018-03-25T06:24:17.543Z,56.50
2018-03-25T06:26:45.839Z,21.70
2018-03-25T06:29:13.784Z,16.10
2018-03-25T06:31:41.544Z,17.17
2018-03-25T06:34:10.030Z,16.67
2018-03-25T06:36:38.006Z,17.30
2018-03-25T06:39:06.235Z,17.60
2018-03-25T06:41:34.709Z,19.95
2018-03-25T06:44:02.555Z,18.50
2018-03-25T06:46:30.589Z,19.40
2018-03-25T06:48:58.415Z,30.73
2018-03-25T06:51:26.521Z,20.20
2018-03-25T06:53:54.310Z,20.43
2018-03-25T06:56:22.078Z,19.23
2018-03-25T06:58:50.043Z,26.17
2018-03-25T07:01:17.941Z,22.77
2018-03-25T07:03:45.830Z,20.90
2018-03-25T07:06:14.319Z,27.97
2018-03-25T07:08:42.431Z,27.47
2018-03-25T07:11:10.180Z,25.90
2018-03-25T07:13:38.218Z,28.10
2018-03-25T07:16:05.960Z,25.17
2018-03-25T07:18:33.890Z,21.20
2018-03-25T07:21:01.668Z,24.93
2018-03-25T07:23:29.725Z,26.27
2018-03-25T07:25:57.956Z,24.47
2018-03-25T07:28:25.786Z,24.27
2018-03-25T07:30:53.905Z,30.77
2018-03-25T07:33:21.691Z,25.57
2018-03-25T07:35:49.530Z,22.77
2018-03-25T07:38:17.465Z,19.62
2018-03-25T07:40:45.620Z,19.90
2018-03-25T07:43:13.799Z,20.33
2018-03-25T07:45:42.178Z,21.05
2018-03-25T07:48:10.095Z,21.50
2018-03-25T07:50:37.760Z,21.70
2018-03-25T07:53:05.540Z,22.33
2018-03-25T07:55:33.238Z,23.23
2018-03-25T07:58:01.604Z,21.20
2018-03-25T08:00:30.184Z,21.07
2018-03-25T08:02:58.345Z,23.00
2018-03-25T08:05:26.052Z,21.35
2018-03-25T08:07:54.070Z,21.80
2018-03-25T08:10:22.419Z,22.80
2018-03-25T08:12:50.454Z,23.00
2018-03-25T08:15:18.305Z,24.10
2018-03-25T08:17:46.521Z,21.67
2018-03-25T08:20:15.023Z,22.30
2018-03-25T08:22:42.610Z,22.10
2018-03-25T08:25:10.376Z,23.48
2018-03-25T08:27:38.218Z,22.27
2018-03-25T08:30:06.357Z,23.30
2018-03-25T08:32:34.400Z,22.87
2018-03-25T08:35:02.321Z,23.97
2018-03-25T08:37:32.067Z,23.27
2018-03-25T08:39:59.960Z,22.97
2018-03-25T08:42:28.421Z,26.07
2018-03-25T08:44:56.640Z,24.15
2018-03-25T08:47:24.545Z,23.73
2018-03-25T08:49:53.063Z,23.92
2018-03-25T08:52:21.173Z,25.07
2018-03-25T08:54:49.305Z,24.63
2018-03-25T08:57:18.079Z,25.23
2018-03-25T08:59:46.130Z,25.60
2018-03-25T09:02:14.309Z,25.13
2018-03-25T09:04:42.205Z,25.60
2018-03-25T09:07:10.044Z,26.47
2018-03-25T09:09:37.954Z,25.57
2018-03-25T09:12:05.614Z,27.13
2018-03-25T09:14:33.434Z,25.67
2018-03-25T09:17:01.489Z,27.03
2018-03-25T09:19:29.571Z,27.90
2018-03-25T09:21:57.826Z,27.67
2018-03-25T09:24:25.553Z,26.00
2018-03-25T09:26:53.098Z,26.90
2018-03-25T09:29:20.964Z,27.40
2018-03-25T09:31:49.873Z,27.10
2018-03-25T09:34:17.940Z,25.30
2018-03-25T09:36:45.883Z,26.20
2018-03-25T09:39:14.125Z,26.23
2018-03-25T09:41:42.310Z,25.57
2018-03-25T09:44:10.701Z,24.73
2018-03-25T09:46:39.620Z,24.90
2018-03-25T09:49:07.559Z,25.58
2018-03-25T09:51:35.755Z,25.37
2018-03-25T09:54:03.330Z,27.40
2018-03-25T09:56:31.055Z,25.10
2018-03-25T09:58:58.996Z,23.53
2018-03-25T10:01:39.554Z,23.42
2018-03-25T10:04:07.215Z,24.17
2018-03-25T10:06:35.572Z,24.43
2018-03-25T10:09:04.120Z,23.17
2018-03-25T10:11:31.904Z,24.27
2018-03-25T10:13:59.674Z,24.63
2018-03-25T10:16:27.465Z,24.83
2018-03-25T10:18:55.664Z,25.92
2018-03-25T10:21:23.685Z,24.20
2018-03-25T10:23:51.842Z,23.97
2018-03-25T10:26:20.369Z,24.33
2018-03-25T10:28:48.302Z,23.67
2018-03-25T10:31:16.545Z,24.87
2018-03-25T10:33:44.308Z,24.77
2018-03-25T10:36:12.558Z,25.43
2018-03-25T10:38:40.496Z,23.93
2018-03-25T10:41:08.459Z,24.23
2018-03-25T10:43:36.403Z,23.53
2018-03-25T10:46:04.435Z,24.10
2018-03-25T10:48:32.865Z,24.50
2018-03-25T10:51:00.902Z,24.07
2018-03-25T10:53:28.639Z,23.27
2018-03-25T10:55:56.604Z,22.60
2018-03-25T10:58:24.892Z,22.05
2018-03-25T11:00:52.960Z,23.40
2018-03-25T11:03:20.514Z,23.47
2018-03-25T11:05:48.809Z,23.03
2018-03-25T11:08:16.502Z,24.00
2018-03-25T11:10:44.092Z,23.47
2018-03-25T11:13:11.883Z,20.67
2018-03-25T11:15:39.698Z,20.97
2018-03-25T11:18:07.671Z,19.90
2018-03-25T11:20:35.713Z,18.30
2018-03-25T11:23:03.573Z,18.37
2018-03-25T11:25:31.357Z,18.57
2018-03-25T11:27:59.448Z,17.80
2018-03-25T11:30:27.283Z,17.10
2018-03-25T11:32:55.059Z,18.60
2018-03-25T11:35:22.623Z,18.30
2018-03-25T11:37:50.407Z,16.60
2018-03-25T11:40:18.169Z,16.93
2018-03-25T11:42:45.992Z,16.10
2018-03-25T11:45:14.073Z,16.27
2018-03-25T11:47:42.123Z,16.27
2018-03-25T11:50:09.770Z,15.87
2018-03-25T11:52:38.587Z,15.23
2018-03-25T11:55:07.459Z,15.70
2018-03-25T11:57:35.102Z,14.30
2018-03-25T12:00:02.804Z,17.60
2018-03-25T12:02:30.611Z,17.77
2018-03-25T12:04:58.552Z,19.60
2018-03-25T12:07:26.179Z,19.23
2018-03-25T12:09:54.129Z,19.27
2018-03-25T12:12:22.073Z,18.10
2018-03-25T12:14:50.153Z,18.60
2018-03-25T12:17:17.988Z,18.73
2018-03-25T12:19:45.875Z,16.10
2018-03-25T12:22:13.734Z,15.23
2018-03-25T12:24:41.272Z,16.53
2018-03-25T12:27:09.059Z,16.80
2018-03-25T12:29:36.791Z,16.33
2018-03-25T12:32:04.754Z,15.97
2018-03-25T12:34:32.613Z,15.40
2018-03-25T12:37:00.893Z,13.97
2018-03-25T12:39:28.703Z,14.73
2018-03-25T12:41:56.565Z,14.33
2018-03-25T12:44:24.532Z,16.67
2018-03-25T12:46:52.624Z,15.80
2018-03-25T12:49:20.771Z,16.13
2018-03-25T12:51:49.365Z,14.90
2018-03-25T12:54:17.660Z,15.20
2018-03-25T12:56:45.538Z,14.80
2018-03-25T12:59:13.356Z,14.60
2018-03-25T13:01:41.405Z,15.27
2018-03-25T13:04:09.579Z,15.77
2018-03-25T13:06:37.476Z,15.00
2018-03-25T13:09:05.532Z,15.47
2018-03-25T13:11:33.369Z,16.73
2018-03-25T13:14:01.972Z,20.10
2018-03-25T13:16:30.060Z,23.07
2018-03-25T13:18:58.309Z,21.30
2018-03-25T13:21:26.754Z,21.57
2018-03-25T13:23:54.515Z,20.60
2018-03-25T13:26:22.584Z,19.20
2018-03-25T13:28:50.742Z,20.57
2018-03-25T13:31:18.683Z,20.27
2018-03-25T13:33:46.537Z,21.70
2018-03-25T13:36:14.349Z,19.80
2018-03-25T13:38:42.369Z,20.10
2018-03-25T13:41:10.178Z,20.63
2018-03-25T13:43:37.864Z,20.10
2018-03-25T13:46:05.739Z,20.40
2018-03-25T13:48:33.472Z,20.47
2018-03-25T13:51:07.370Z,20.40
2018-03-25T13:53:35.320Z,19.20
2018-03-25T13:56:03.035Z,17.87
2018-03-25T13:58:30.831Z,18.77
2018-03-25T14:00:58.548Z,19.13
2018-03-25T14:03:28.102Z,19.67
2018-03-25T14:05:55.774Z,18.10
2018-03-25T14:08:24.238Z,18.80
2018-03-25T14:10:51.969Z,17.73
2018-03-25T14:13:20.128Z,17.70
2018-03-25T14:15:47.914Z,18.70
2018-03-25T14:18:16.113Z,18.40
2018-03-25T14:20:44.285Z,18.80
2018-03-25T14:23:12.455Z,19.12
2018-03-25T14:25:40.945Z,20.00
2018-03-25T14:28:10.426Z,20.47
2018-03-25T14:30:38.242Z,21.00
2018-03-25T14:33:06.095Z,20.60
2018-03-25T14:35:33.689Z,20.65
2018-03-25T14:38:01.380Z,19.70
2018-03-25T14:40:29.203Z,19.53
2018-03-25T14:42:56.884Z,18.80
2018-03-25T14:45:24.673Z,18.43
2018-03-25T14:47:52.348Z,19.03
2018-03-25T14:50:20.290Z,20.03
2018-03-25T14:52:47.964Z,17.97
2018-03-25T14:55:15.542Z,20.27
2018-03-25T14:57:43.485Z,19.43
2018-03-25T15:00:11.383Z,19.10
2018-03-25T15:02:39.349Z,19.13
2018-03-25T15:05:07.023Z,18.23
2018-03-25T15:07:34.807Z,18.30
2018-03-25T15:10:02.614Z,17.83
2018-03-25T15:12:30.177Z,16.87
2018-03-25T15:14:57.860Z,19.70
2018-03-25T15:17:26.317Z,17.20
2018-03-25T15:19:53.993Z,17.50
2018-03-25T15:22:22.195Z,18.93
2018-03-25T15:24:50.424Z,19.20
2018-03-25T15:27:18.099Z,29.23
2018-03-25T15:29:45.927Z,18.17
2018-03-25T15:32:13.868Z,18.53
2018-03-25T15:34:42.135Z,16.73
2018-03-25T15:37:10.102Z,16.70
2018-03-25T15:39:38.882Z,17.27
2018-03-25T15:42:06.667Z,26.70
2018-03-25T15:44:34.527Z,38.27
2018-03-25T15:47:02.440Z,23.00
2018-03-25T15:49:30.590Z,21.35
2018-03-25T15:51:58.278Z,17.10
2018-03-25T15:54:25.972Z,16.35
2018-03-25T15:56:54.318Z,17.73
2018-03-25T15:59:22.326Z,16.17
2018-03-25T16:01:50.740Z,18.53
2018-03-25T16:04:18.648Z,17.07
2018-03-25T16:06:46.543Z,19.50
2018-03-25T16:09:14.924Z,18.80
2018-03-25T16:11:42.951Z,18.87
2018-03-25T16:14:10.753Z,18.30
2018-03-25T16:16:39.555Z,19.92
2018-03-25T16:19:08.117Z,18.83
2018-03-25T16:21:36.023Z,17.57
2018-03-25T16:24:04.464Z,18.60
2018-03-25T16:26:32.627Z,23.83
2018-03-25T16:29:00.526Z,30.57
2018-03-25T16:31:28.134Z,19.87
2018-03-25T16:33:56.185Z,18.53
2018-03-25T16:36:23.991Z,18.97
2018-03-25T16:38:52.167Z,17.93
2018-03-25T16:41:20.020Z,19.20
2018-03-25T16:43:47.599Z,18.90
2018-03-25T16:46:15.305Z,20.17
2018-03-25T16:48:42.884Z,18.47
2018-03-25T16:51:10.703Z,20.00
2018-03-25T16:53:38.620Z,19.60
2018-03-25T16:56:06.343Z,19.97
2018-03-25T16:58:34.010Z,20.08
2018-03-25T17:01:01.773Z,20.47
2018-03-25T17:03:30.125Z,23.60
2018-03-25T17:05:57.957Z,23.80
2018-03-25T17:08:26.908Z,33.33
2018-03-25T17:10:55.196Z,21.63
2018-03-25T17:13:23.569Z,22.47
2018-03-25T17:15:52.809Z,21.93
2018-03-25T17:18:20.800Z,21.83
2018-03-25T17:20:48.740Z,19.80
2018-03-25T17:23:17.115Z,21.77
2018-03-25T17:25:44.949Z,19.87
2018-03-25T17:28:13.184Z,22.27
2018-03-25T17:30:41.706Z,23.70
2018-03-25T17:33:10.111Z,20.07
2018-03-25T17:35:37.649Z,19.87
2018-03-25T17:38:08.018Z,26.17
2018-03-25T17:40:35.854Z,22.45
2018-03-25T17:43:05.537Z,22.35
2018-03-25T17:45:35.697Z,22.87
2018-03-25T17:48:05.088Z,21.93
2018-03-25T17:50:32.728Z,21.23
2018-03-25T17:53:01.171Z,21.83
2018-03-25T17:55:29.901Z,21.33
2018-03-25T17:57:58.268Z,20.97
2018-03-25T18:00:26.467Z,22.67
2018-03-25T18:02:54.792Z,23.20
2018-03-25T18:05:27.179Z,21.03
2018-03-25T18:07:54.899Z,21.90
2018-03-25T18:10:22.684Z,21.00
2018-03-25T18:12:50.820Z,21.00
2018-03-25T18:15:19.250Z,21.00
2018-03-25T18:17:47.284Z,21.60
2018-03-25T18:20:16.859Z,21.70
2018-03-25T18:22:45.039Z,20.07
2018-03-25T18:25:12.630Z,21.97
2018-03-25T18:27:41.127Z,21.00
2018-03-25T18:30:08.895Z,21.20
2018-03-25T18:32:37.445Z,20.27
2018-03-25T18:35:05.825Z,20.30
2018-03-25T18:37:34.064Z,20.90
2018-03-25T18:40:05.953Z,21.70
2018-03-25T18:42:33.656Z,19.60
2018-03-25T18:45:01.339Z,19.00
2018-03-25T18:47:29.283Z,19.47
2018-03-25T18:49:58.488Z,19.20
2018-03-25T18:52:27.363Z,21.80
2018-03-25T18:54:55.493Z,21.25
2018-03-25T18:57:23.928Z,19.67
2018-03-25T18:59:51.998Z,19.80
2018-03-25T19:02:20.634Z,17.90
2018-03-25T19:04:48.351Z,20.17
2018-03-25T19:07:17.124Z,19.90
2018-03-25T19:12:48.415Z,19.20
2018-03-25T19:15:16.464Z,19.17
2018-03-25T19:17:45.625Z,18.55
2018-03-25T19:20:13.506Z,18.53
2018-03-25T19:22:42.585Z,18.77
2018-03-25T19:25:11.228Z,17.07
2018-03-25T19:27:39.567Z,17.50
2018-03-25T19:30:07.227Z,15.57
2018-03-25T19:32:35.195Z,16.55
2018-03-25T19:35:02.931Z,17.57
2018-03-25T19:37:31.305Z,16.40
2018-03-25T19:40:00.048Z,15.15
2018-03-25T19:42:28.270Z,16.73
2018-03-25T19:44:57.075Z,16.43
2018-03-25T19:47:26.172Z,16.00
2018-03-25T19:49:53.891Z,15.73
2018-03-25T19:52:21.645Z,14.57
2018-03-25T19:54:49.457Z,14.40
2018-03-25T19:57:18.444Z,13.33
2018-03-25T19:59:46.176Z,14.07
2018-03-25T20:02:14.509Z,13.10
2018-03-25T20:04:42.125Z,14.67
2018-03-25T20:07:10.070Z,13.27
2018-03-25T20:09:38.013Z,13.13
2018-03-25T20:12:06.549Z,13.43
2018-03-25T20:14:34.415Z,12.70
2018-03-25T20:17:02.218Z,13.48
2018-03-25T20:19:29.924Z,13.60
2018-03-25T20:21:57.683Z,13.80
2018-03-25T20:24:25.485Z,13.90
2018-03-25T20:26:53.170Z,12.97
2018-03-25T20:29:20.842Z,12.40
2018-03-25T20:31:48.855Z,12.87
2018-03-25T20:34:16.570Z,14.40
2018-03-25T20:36:45.335Z,13.10
2018-03-25T20:39:13.084Z,12.33
2018-03-25T20:41:41.218Z,13.68
2018-03-25T20:44:09.020Z,11.27
2018-03-25T20:46:36.660Z,12.70
2018-03-25T20:49:04.339Z,12.57
2018-03-25T20:51:32.208Z,11.40
2018-03-25T20:54:00.038Z,13.40
2018-03-25T20:56:27.791Z,11.20
2018-03-25T20:58:55.770Z,12.17
2018-03-25T21:01:23.653Z,12.50
2018-03-25T21:03:51.458Z,12.43
2018-03-25T21:06:19.331Z,12.47
2018-03-25T21:08:47.380Z,11.67
2018-03-25T21:11:15.293Z,12.17
2018-03-25T21:13:43.114Z,12.47
2018-03-25T21:16:11.197Z,13.57
2018-03-25T21:18:38.802Z,12.35
2018-03-25T21:21:07.000Z,13.60
2018-03-25T21:23:35.052Z,12.80
2018-03-25T21:26:02.768Z,12.33
2018-03-25T21:28:31.088Z,13.25
2018-03-25T21:30:58.804Z,13.10
2018-03-25T21:33:26.970Z,11.80
2018-03-25T21:35:54.732Z,12.68
2018-03-25T21:38:22.583Z,13.40
2018-03-25T21:40:50.604Z,12.60
2018-03-25T21:43:18.585Z,11.67
2018-03-25T21:45:46.242Z,11.57
2018-03-25T21:48:14.033Z,12.10
2018-03-25T21:50:41.593Z,12.73
2018-03-25T21:53:09.244Z,12.87
2018-03-25T21:55:37.514Z,12.50
2018-03-25T21:58:06.080Z,11.67
2018-03-25T22:00:33.767Z,14.00
2018-03-25T22:03:06.457Z,14.40
2018-03-25T22:05:34.133Z,13.90
2018-03-25T22:08:01.970Z,12.43
2018-03-25T22:10:29.714Z,12.20
2018-03-25T22:12:57.786Z,11.77
2018-03-25T22:15:25.487Z,12.23
2018-03-25T22:17:53.359Z,13.40
2018-03-25T22:20:21.693Z,11.90
2018-03-25T22:22:49.213Z,11.90
2018-03-25T22:25:17.005Z,12.80
2018-03-25T22:27:44.782Z,12.80
2018-03-25T22:30:12.574Z,12.70
2018-03-25T22:32:40.571Z,11.43
2018-03-25T22:35:09.407Z,12.00
2018-03-25T22:37:37.089Z,12.80
2018-03-25T22:40:04.729Z,12.70
2018-03-25T22:42:32.510Z,12.03
2018-03-25T22:45:00.563Z,12.73
2018-03-25T22:47:28.182Z,14.00
2018-03-25T22:49:55.857Z,13.07
2018-03-25T22:52:23.583Z,14.00
2018-03-25T22:54:51.149Z,14.77
2018-03-25T22:57:19.007Z,14.48
2018-03-25T22:59:46.632Z,14.50
2018-03-25T23:02:14.619Z,15.13
2018-03-25T23:04:42.438Z,13.60
2018-03-25T23:07:10.144Z,14.30
2018-03-25T23:09:38.059Z,15.60
2018-03-25T23:12:05.970Z,13.60
2018-03-25T23:14:33.947Z,14.00
2018-03-25T23:17:02.044Z,13.87
2018-03-25T23:19:29.847Z,12.63
2018-03-25T23:21:57.382Z,13.43
2018-03-25T23:24:25.073Z,15.13
2018-03-25T23:26:53.558Z,13.67
2018-03-25T23:29:21.189Z,15.65
2018-03-25T23:31:48.848Z,15.23
2018-03-25T23:34:16.464Z,13.45
2018-03-25T23:36:44.159Z,13.47
2018-03-25T23:39:11.847Z,12.13
2018-03-25T23:41:40.175Z,12.27
2018-03-25T23:44:07.979Z,12.37
2018-03-25T23:46:36.267Z,13.53
2018-03-25T23:49:04.073Z,12.90
2018-03-25T23:51:32.658Z,13.83
2018-03-25T23:54:00.403Z,13.00
2018-03-25T23:56:28.176Z,12.80
2018-03-25T23:58:56.138Z,13.07
